createdAt,value
2022-11-28T00:02:30.580Z,7.90
2022-11-28T00:05:18.218Z,8.00
2022-11-28T00:08:06.246Z,8.00
2022-11-28T00:10:53.805Z,8.00
2022-11-28T00:13:42.743Z,8.00
2022-11-28T00:16:30.653Z,8.00
2022-11-28T00:19:19.145Z,8.10
2022-11-28T00:22:06.466Z,8.10
2022-11-28T00:24:53.945Z,8.10
2022-11-28T00:27:41.555Z,8.10
2022-11-28T00:30:28.887Z,8.10
2022-11-28T00:33:16.222Z,8.00
2022-11-28T00:36:06.085Z,8.10
2022-11-28T00:38:54.681Z,8.00
2022-11-28T00:41:42.586Z,8.00
2022-11-28T00:44:29.935Z,8.00
2022-11-28T00:47:18.184Z,8.00
2022-11-28T00:50:06.755Z,8.00
2022-11-28T00:52:55.276Z,8.00
2022-11-28T00:55:43.106Z,8.00
2022-11-28T00:58:30.983Z,7.90
2022-11-28T01:01:19.867Z,7.90
2022-11-28T01:04:10.442Z,7.80
2022-11-28T01:06:58.771Z,7.60
2022-11-28T01:09:48.049Z,7.60
2022-11-28T01:12:36.011Z,7.60
2022-11-28T01:15:23.712Z,7.50
2022-11-28T01:18:11.829Z,7.50
2022-11-28T01:20:59.615Z,7.50
2022-11-28T01:23:47.710Z,7.40
2022-11-28T01:26:36.582Z,7.40
2022-11-28T01:29:24.339Z,7.40
2022-11-28T01:32:12.089Z,7.40
2022-11-28T01:35:00.010Z,7.40
2022-11-28T01:37:47.708Z,7.40
2022-11-28T01:40:35.009Z,7.40
2022-11-28T01:43:24.488Z,7.30
2022-11-28T01:46:12.282Z,7.30
2022-11-28T01:49:00.831Z,7.30
2022-11-28T01:51:50.327Z,7.30
2022-11-28T01:54:38.926Z,7.30
2022-11-28T01:57:27.013Z,7.20
2022-11-28T02:00:17.628Z,7.30
2022-11-28T02:03:07.747Z,7.30
2022-11-28T02:05:58.573Z,7.30
2022-11-28T02:08:46.189Z,7.30
2022-11-28T02:11:45.452Z,7.30
2022-11-28T02:14:43.552Z,7.30
2022-11-28T02:17:37.601Z,7.30
2022-11-28T02:20:44.073Z,7.30
2022-11-28T02:23:38.934Z,7.30
2022-11-28T02:26:42.917Z,7.30
2022-11-28T02:29:49.957Z,7.30
2022-11-28T02:32:48.638Z,7.30
2022-11-28T02:35:39.235Z,7.30
2022-11-28T02:38:31.999Z,7.30
2022-11-28T02:41:28.415Z,7.20
2022-11-28T02:44:18.205Z,7.30
2022-11-28T02:47:10.860Z,7.30
2022-11-28T02:50:02.807Z,7.40
2022-11-28T02:52:51.380Z,7.30
2022-11-28T02:55:40.771Z,7.30
2022-11-28T02:58:28.852Z,7.30
2022-11-28T03:01:18.484Z,7.40
2022-11-28T03:04:14.800Z,7.30
2022-11-28T03:07:08.548Z,7.30
2022-11-28T03:10:02.695Z,7.40
2022-11-28T03:12:53.225Z,7.30
2022-11-28T03:15:44.486Z,7.40
2022-11-28T03:18:34.359Z,7.40
2022-11-28T03:21:26.213Z,7.40
2022-11-28T03:24:17.069Z,7.40
2022-11-28T03:27:07.041Z,7.40
2022-11-28T03:29:56.232Z,7.40
2022-11-28T03:32:44.694Z,7.40
2022-11-28T03:35:33.958Z,7.40
2022-11-28T03:38:22.575Z,7.40
2022-11-28T03:41:14.852Z,7.40
2022-11-28T03:44:03.578Z,7.40
2022-11-28T03:46:52.298Z,7.40
2022-11-28T03:49:41.418Z,7.40
2022-11-28T03:52:30.965Z,7.40
2022-11-28T03:55:20.339Z,7.40
2022-11-28T03:58:13.032Z,7.40
2022-11-28T04:01:03.970Z,7.50
2022-11-28T04:03:53.156Z,7.40
2022-11-28T04:06:46.118Z,7.50
2022-11-28T04:09:39.094Z,7.50
2022-11-28T04:12:31.021Z,7.50
2022-11-28T04:15:22.581Z,7.50
2022-11-28T04:18:18.751Z,7.50
2022-11-28T04:21:11.564Z,7.50
2022-11-28T04:24:02.217Z,7.40
2022-11-28T04:26:53.038Z,7.50
2022-11-28T04:29:43.531Z,7.50
2022-11-28T04:32:34.061Z,7.50
2022-11-28T04:35:25.734Z,7.50
2022-11-28T04:38:14.048Z,7.50
2022-11-28T04:41:04.007Z,7.50
2022-11-28T04:43:53.684Z,7.50
2022-11-28T04:46:42.401Z,7.60
2022-11-28T04:49:32.071Z,7.40
2022-11-28T04:52:22.462Z,7.40
2022-11-28T04:55:11.598Z,7.40
2022-11-28T04:58:04.071Z,7.40
2022-11-28T05:00:54.227Z,7.50
2022-11-28T05:03:42.950Z,7.40
2022-11-28T05:06:33.352Z,7.50
2022-11-28T05:09:21.076Z,7.50
2022-11-28T05:12:08.926Z,7.40
2022-11-28T05:14:56.706Z,7.50
2022-11-28T05:17:44.338Z,7.40
2022-11-28T05:20:32.450Z,7.50
2022-11-28T05:23:21.879Z,7.50
2022-11-28T05:26:09.367Z,7.50
2022-11-28T05:28:57.338Z,7.50
2022-11-28T05:31:44.422Z,7.50
2022-11-28T05:34:32.201Z,7.50
2022-11-28T05:37:20.255Z,7.50
2022-11-28T05:40:10.134Z,7.50
2022-11-28T05:42:58.583Z,7.50
2022-11-28T05:45:46.705Z,7.50
2022-11-28T05:48:34.717Z,7.50
2022-11-28T05:51:22.316Z,7.50
2022-11-28T05:54:10.324Z,7.50
2022-11-28T05:56:59.742Z,7.50
2022-11-28T05:59:47.116Z,7.50
2022-11-28T06:02:36.609Z,7.50
2022-11-28T06:05:41.533Z,7.50
2022-11-28T06:08:30.243Z,7.50
2022-11-28T06:11:18.441Z,7.60
2022-11-28T06:14:07.385Z,7.60
2022-11-28T06:16:55.189Z,7.60
2022-11-28T06:19:42.625Z,7.60
2022-11-28T06:22:30.503Z,7.50
2022-11-28T06:25:18.169Z,7.60
2022-11-28T06:28:06.278Z,7.60
2022-11-28T06:30:55.545Z,7.70
2022-11-28T06:33:43.325Z,7.60
2022-11-28T06:36:31.171Z,7.60
2022-11-28T06:39:19.232Z,7.70
2022-11-28T06:42:07.081Z,7.70
2022-11-28T06:44:55.081Z,7.70
2022-11-28T06:47:44.150Z,7.80
2022-11-28T06:50:33.568Z,7.80
2022-11-28T06:53:41.183Z,7.80
2022-11-28T06:56:29.026Z,7.80
2022-11-28T06:59:17.104Z,7.70
2022-11-28T07:02:07.844Z,7.80
2022-11-28T07:04:57.366Z,7.80
2022-11-28T07:07:53.860Z,7.80
2022-11-28T07:10:42.594Z,7.80
2022-11-28T07:13:30.328Z,7.30
2022-11-28T07:16:19.733Z,7.80
2022-11-28T07:19:06.823Z,7.90
2022-11-28T07:21:55.899Z,7.90
2022-11-28T07:24:43.140Z,7.90
2022-11-28T07:27:30.805Z,7.90
2022-11-28T07:30:20.157Z,7.90
2022-11-28T07:33:07.874Z,7.90
2022-11-28T07:35:55.488Z,7.90
2022-11-28T07:38:47.109Z,8.00
2022-11-28T07:41:34.617Z,7.90
2022-11-28T07:44:22.523Z,7.90
2022-11-28T07:47:09.784Z,7.90
2022-11-28T07:49:58.567Z,7.90
2022-11-28T07:52:46.251Z,7.90
2022-11-28T07:55:37.518Z,8.00
2022-11-28T07:58:24.986Z,8.00
2022-11-28T08:01:13.246Z,7.90
2022-11-28T08:04:01.659Z,8.00
2022-11-28T08:06:49.294Z,8.00
2022-11-28T08:09:37.140Z,8.00
2022-11-28T08:12:26.105Z,8.00
2022-11-28T08:15:13.636Z,8.00
2022-11-28T08:18:01.353Z,8.10
2022-11-28T08:20:49.288Z,8.00
2022-11-28T08:23:37.526Z,8.10
2022-11-28T08:26:30.428Z,8.10
2022-11-28T08:29:19.575Z,8.10
2022-11-28T08:32:07.003Z,8.20
2022-11-28T08:34:54.784Z,8.20
2022-11-28T08:37:42.263Z,8.20
2022-11-28T08:40:30.053Z,8.20
2022-11-28T08:43:17.651Z,8.30
2022-11-28T08:46:07.102Z,8.20
2022-11-28T08:48:55.127Z,8.30
2022-11-28T08:51:42.928Z,8.30
2022-11-28T08:54:30.473Z,8.30
2022-11-28T08:57:17.896Z,8.40
2022-11-28T09:00:06.420Z,8.40
2022-11-28T09:02:55.967Z,8.30
2022-11-28T09:05:45.438Z,8.40
2022-11-28T09:08:33.158Z,8.30
2022-11-28T09:11:22.033Z,8.40
2022-11-28T09:14:10.147Z,8.40
2022-11-28T09:16:58.282Z,8.50
2022-11-28T09:19:47.554Z,8.50
2022-11-28T09:22:34.868Z,8.60
2022-11-28T09:25:22.747Z,8.60
2022-11-28T09:28:10.807Z,8.60
2022-11-28T09:31:02.547Z,8.60
2022-11-28T09:33:50.110Z,8.70
2022-11-28T09:36:38.790Z,8.70
2022-11-28T09:39:26.310Z,8.70
2022-11-28T09:42:17.765Z,8.80
2022-11-28T09:45:08.047Z,8.80
2022-11-28T09:47:57.551Z,8.80
2022-11-28T09:50:45.298Z,8.80
2022-11-28T09:53:37.817Z,8.80
2022-11-28T09:56:25.577Z,8.90
2022-11-28T09:59:16.972Z,8.90
2022-11-28T10:02:13.416Z,8.90
2022-11-28T10:05:06.094Z,8.90
2022-11-28T10:07:59.873Z,9.00
2022-11-28T10:10:53.899Z,9.10
2022-11-28T10:14:06.801Z,9.10
2022-11-28T10:16:59.876Z,9.10
2022-11-28T10:19:56.404Z,9.10
2022-11-28T10:22:47.891Z,9.20
2022-11-28T10:25:36.736Z,9.30
2022-11-28T10:28:27.540Z,9.30
2022-11-28T10:31:17.267Z,9.40
2022-11-28T10:34:07.484Z,9.30
2022-11-28T10:36:58.312Z,9.40
2022-11-28T10:39:46.208Z,9.40
2022-11-28T10:42:36.813Z,9.40
2022-11-28T10:45:33.409Z,9.50
2022-11-28T10:48:39.451Z,9.50
2022-11-28T10:51:34.801Z,9.50
2022-11-28T10:54:26.770Z,9.50
2022-11-28T10:57:17.697Z,9.50
2022-11-28T11:00:10.783Z,9.40
2022-11-28T11:03:03.169Z,9.40
2022-11-28T11:05:51.040Z,9.40
2022-11-28T11:08:39.467Z,9.50
2022-11-28T11:11:29.022Z,9.50
2022-11-28T11:14:24.559Z,9.60
2022-11-28T11:17:25.001Z,9.60
2022-11-28T11:20:39.846Z,9.70
2022-11-28T11:23:32.814Z,9.70
2022-11-28T11:26:26.298Z,9.80
2022-11-28T11:29:21.596Z,9.80
2022-11-28T11:32:21.781Z,9.90
2022-11-28T11:35:16.987Z,9.90
2022-11-28T11:38:17.935Z,10.00
2022-11-28T11:41:21.552Z,10.00
2022-11-28T11:44:29.317Z,10.10
2022-11-28T11:47:17.217Z,10.20
2022-11-28T11:50:05.988Z,10.30
2022-11-28T11:53:01.950Z,10.30
2022-11-28T11:55:50.736Z,10.30
2022-11-28T11:58:42.369Z,10.30
2022-11-28T12:01:31.825Z,10.20
2022-11-28T12:04:44.364Z,10.20
2022-11-28T12:07:33.213Z,10.20
2022-11-28T12:10:22.510Z,10.40
2022-11-28T12:13:15.105Z,10.30
2022-11-28T12:16:07.755Z,10.40
2022-11-28T12:19:00.760Z,10.30
2022-11-28T12:21:58.600Z,10.40
2022-11-28T12:24:51.403Z,10.50
2022-11-28T12:27:48.626Z,10.50
2022-11-28T12:30:44.990Z,10.50
2022-11-28T12:33:40.514Z,10.50
2022-11-28T12:36:30.456Z,10.40
2022-11-28T12:39:19.474Z,10.30
2022-11-28T12:42:19.893Z,10.30
2022-11-28T12:45:20.720Z,10.20
2022-11-28T12:48:23.092Z,10.10
2022-11-28T12:51:19.621Z,10.00
2022-11-28T12:54:16.266Z,9.90
2022-11-28T12:57:07.275Z,9.90
2022-11-28T13:00:03.630Z,9.90
2022-11-28T13:03:04.498Z,9.90
2022-11-28T13:05:56.792Z,10.10
2022-11-28T13:08:54.157Z,10.30
2022-11-28T13:11:48.157Z,10.40
2022-11-28T13:14:39.779Z,10.50
2022-11-28T13:17:36.983Z,10.60
2022-11-28T13:20:28.582Z,10.70
2022-11-28T13:23:20.305Z,10.70
2022-11-28T13:26:12.122Z,10.80
2022-11-28T13:29:02.528Z,10.80
2022-11-28T13:31:51.959Z,10.80
2022-11-28T13:34:39.491Z,10.80
2022-11-28T13:40:41.224Z,10.60
2022-11-28T13:43:35.753Z,10.50
2022-11-28T13:46:23.959Z,10.40
2022-11-28T13:49:21.260Z,10.20
2022-11-28T13:52:24.030Z,10.20
2022-11-28T13:55:26.747Z,10.10
2022-11-28T13:58:19.300Z,10.10
2022-11-28T14:01:10.457Z,10.10
2022-11-28T14:04:07.778Z,10.20
2022-11-28T14:06:59.259Z,10.30
2022-11-28T14:09:52.361Z,10.20
2022-11-28T14:12:45.504Z,10.20
2022-11-28T14:15:34.970Z,10.20
2022-11-28T14:18:58.868Z,10.20
2022-11-28T14:21:47.988Z,10.10
2022-11-28T14:24:45.757Z,10.10
2022-11-28T14:27:35.690Z,10.00
2022-11-28T14:30:34.901Z,9.90
2022-11-28T14:33:25.150Z,10.00
2022-11-28T14:36:34.852Z,9.90
2022-11-28T14:39:35.614Z,9.90
2022-11-28T14:42:59.750Z,9.80
2022-11-28T14:45:46.016Z,9.90
2022-11-28T14:48:33.579Z,9.80
2022-11-28T14:51:21.204Z,9.80
2022-11-28T14:54:15.990Z,9.80
2022-11-28T14:57:11.815Z,9.80
2022-11-28T15:00:00.562Z,9.70
2022-11-28T15:02:53.203Z,9.80
2022-11-28T15:05:45.307Z,9.70
2022-11-28T15:08:38.156Z,9.70
2022-11-28T15:11:34.800Z,9.70
2022-11-28T15:14:25.241Z,9.50
2022-11-28T15:17:14.877Z,9.60
2022-11-28T15:20:04.406Z,9.60
2022-11-28T15:22:52.731Z,9.50
2022-11-28T15:25:42.208Z,9.60
2022-11-28T15:28:32.374Z,9.50
2022-11-28T15:31:23.086Z,9.50
2022-11-28T15:34:11.329Z,9.50
2022-11-28T15:37:03.776Z,9.40
2022-11-28T15:39:51.445Z,9.40
2022-11-28T15:42:41.862Z,9.30
2022-11-28T15:45:30.597Z,9.30
2022-11-28T15:48:38.793Z,9.30
2022-11-28T15:51:29.702Z,9.30
2022-11-28T15:54:26.827Z,9.10
2022-11-28T15:57:21.469Z,9.20
2022-11-28T16:00:13.853Z,9.20
2022-11-28T16:03:01.689Z,9.00
2022-11-28T16:05:52.440Z,9.00
2022-11-28T16:08:42.268Z,8.90
2022-11-28T16:11:30.856Z,8.80
2022-11-28T16:14:20.745Z,8.80
2022-11-28T16:17:11.184Z,8.80
2022-11-28T16:19:58.546Z,8.80
2022-11-28T16:22:47.246Z,8.80
2022-11-28T16:25:34.948Z,8.90
2022-11-28T16:28:30.657Z,8.80
2022-11-28T16:31:21.665Z,8.80
2022-11-28T16:34:13.132Z,8.80
2022-11-28T16:37:00.968Z,8.80
2022-11-28T16:39:59.639Z,8.80
2022-11-28T16:42:53.451Z,8.70
2022-11-28T16:45:43.840Z,8.70
2022-11-28T16:48:31.983Z,8.70
2022-11-28T16:51:30.824Z,8.60
2022-11-28T16:54:33.416Z,8.50
2022-11-28T16:57:22.620Z,8.50
2022-11-28T17:00:10.576Z,8.50
2022-11-28T17:02:57.849Z,6.30
2022-11-28T17:05:45.422Z,8.40
2022-11-28T17:08:33.271Z,8.30
2022-11-28T17:11:21.955Z,8.30
2022-11-28T17:14:13.883Z,8.30
2022-11-28T17:17:01.746Z,8.20
2022-11-28T17:19:49.788Z,8.20
2022-11-28T17:22:41.161Z,8.50
2022-11-28T17:25:28.818Z,8.20
2022-11-28T17:28:21.492Z,8.10
2022-11-28T17:31:13.885Z,8.10
2022-11-28T17:34:02.057Z,8.10
2022-11-28T17:36:49.710Z,8.10
2022-11-28T17:39:37.500Z,8.10
2022-11-28T17:42:25.124Z,8.00
2022-11-28T17:45:14.229Z,8.00
2022-11-28T17:48:07.476Z,8.10
2022-11-28T17:50:56.057Z,8.00
2022-11-28T17:53:44.234Z,6.70
2022-11-28T17:56:32.621Z,8.00
2022-11-28T17:59:22.337Z,8.10
2022-11-28T18:02:11.812Z,8.10
2022-11-28T18:05:00.796Z,8.10
2022-11-28T18:07:48.853Z,8.00
2022-11-28T18:10:36.057Z,8.00
2022-11-28T18:13:23.597Z,8.00
2022-11-28T18:16:11.639Z,8.00
2022-11-28T18:18:59.898Z,8.00
2022-11-28T18:21:49.173Z,8.10
2022-11-28T18:24:36.965Z,8.10
2022-11-28T18:27:24.201Z,8.10
2022-11-28T18:30:13.680Z,8.20
2022-11-28T18:33:01.169Z,8.00
2022-11-28T18:35:48.742Z,8.00
2022-11-28T18:38:37.377Z,8.00
2022-11-28T18:41:25.855Z,8.00
2022-11-28T18:44:13.786Z,7.90
2022-11-28T18:47:01.547Z,7.90
2022-11-28T18:49:49.830Z,7.90
2022-11-28T18:52:37.458Z,7.90
2022-11-28T18:55:26.582Z,7.80
2022-11-28T18:58:14.374Z,7.80
2022-11-28T19:01:09.022Z,7.70
2022-11-28T19:03:58.335Z,7.70
2022-11-28T19:06:48.405Z,7.70
2022-11-28T19:09:35.924Z,7.60
2022-11-28T19:12:24.721Z,7.60
2022-11-28T19:15:14.413Z,7.60
2022-11-28T19:18:01.533Z,7.50
2022-11-28T19:20:49.229Z,7.60
2022-11-28T19:23:37.690Z,7.60
2022-11-28T19:26:26.962Z,7.60
2022-11-28T19:29:16.527Z,7.60
2022-11-28T19:32:03.759Z,7.60
2022-11-28T19:34:53.718Z,7.60
2022-11-28T19:37:41.571Z,7.60
2022-11-28T19:40:28.658Z,7.60
2022-11-28T19:43:16.089Z,7.60
2022-11-28T19:46:05.351Z,7.50
2022-11-28T19:48:53.723Z,7.50
2022-11-28T19:51:43.613Z,7.50
2022-11-28T19:54:31.423Z,7.60
2022-11-28T19:57:20.803Z,7.60
2022-11-28T20:00:12.366Z,7.50
2022-11-28T20:03:04.087Z,7.50
2022-11-28T20:05:51.917Z,7.50
2022-11-28T20:08:39.759Z,7.50
2022-11-28T20:11:27.918Z,7.40
2022-11-28T20:14:16.548Z,7.50
2022-11-28T20:17:04.093Z,7.30
2022-11-28T20:19:54.713Z,7.30
2022-11-28T20:22:41.886Z,7.30
2022-11-28T20:25:29.473Z,7.30
2022-11-28T20:28:17.216Z,7.30
2022-11-28T20:31:04.865Z,7.30
2022-11-28T20:33:53.804Z,7.30
2022-11-28T20:36:43.743Z,7.40
2022-11-28T20:39:32.198Z,7.40
2022-11-28T20:42:19.698Z,7.40
2022-11-28T20:45:07.785Z,7.50
2022-11-28T20:47:55.653Z,7.50
2022-11-28T20:50:44.526Z,7.50
2022-11-28T20:53:35.277Z,7.40
2022-11-28T20:56:23.290Z,7.40
2022-11-28T20:59:11.167Z,7.40
2022-11-28T21:01:58.739Z,7.40
2022-11-28T21:04:46.249Z,7.40
2022-11-28T21:07:33.469Z,7.30
2022-11-28T21:10:22.315Z,7.20
2022-11-28T21:13:09.409Z,7.20
2022-11-28T21:15:56.592Z,7.10
2022-11-28T21:18:44.637Z,7.10
2022-11-28T21:21:32.782Z,7.10
2022-11-28T21:24:20.484Z,7.00
2022-11-28T21:27:09.098Z,7.00
2022-11-28T21:29:56.607Z,7.10
2022-11-28T21:32:44.009Z,7.10
2022-11-28T21:35:31.911Z,7.10
2022-11-28T21:38:20.081Z,7.30
2022-11-28T21:41:07.698Z,7.30
2022-11-28T21:43:56.879Z,7.30
2022-11-28T21:46:44.045Z,7.30
2022-11-28T21:49:32.680Z,7.30
2022-11-28T21:52:23.620Z,7.20
2022-11-28T21:55:11.406Z,7.20
2022-11-28T21:57:58.530Z,7.20
2022-11-28T22:00:53.679Z,7.10
2022-11-28T22:03:44.845Z,7.10
2022-11-28T22:06:33.487Z,7.00
2022-11-28T22:09:21.115Z,7.00
2022-11-28T22:12:08.944Z,6.90
2022-11-28T22:14:56.199Z,6.80
2022-11-28T22:17:44.809Z,6.90
2022-11-28T22:20:32.520Z,6.80
2022-11-28T22:23:19.879Z,6.80
2022-11-28T22:26:08.800Z,6.70
2022-11-28T22:28:56.562Z,6.70
2022-11-28T22:31:44.245Z,6.70
2022-11-28T22:34:39.509Z,6.70
2022-11-28T22:37:27.751Z,6.70
2022-11-28T22:40:15.762Z,6.70
2022-11-28T22:43:03.493Z,6.70
2022-11-28T22:45:56.394Z,6.80
2022-11-28T22:48:44.655Z,6.70
2022-11-28T22:51:37.070Z,6.60
2022-11-28T22:54:24.791Z,6.70
2022-11-28T22:57:13.123Z,7.90
2022-11-28T23:00:00.557Z,6.70
2022-11-28T23:02:48.703Z,6.70
2022-11-28T23:05:38.741Z,6.70
2022-11-28T23:08:30.439Z,6.70
2022-11-28T23:11:19.576Z,6.70
2022-11-28T23:14:09.057Z,6.70
2022-11-28T23:16:57.096Z,6.60
2022-11-28T23:19:44.907Z,6.70
2022-11-28T23:22:34.283Z,6.70
2022-11-28T23:25:23.002Z,6.70
2022-11-28T23:28:11.123Z,6.70
2022-11-28T23:31:05.045Z,6.70
2022-11-28T23:33:52.396Z,6.60
2022-11-28T23:36:42.691Z,6.50
2022-11-28T23:39:30.705Z,6.40
2022-11-28T23:42:27.656Z,6.30
2022-11-28T23:45:16.058Z,6.30
2022-11-28T23:48:03.680Z,6.30
2022-11-28T23:50:51.727Z,6.30
2022-11-28T23:53:39.260Z,6.20
2022-11-28T23:56:28.068Z,6.20
2022-11-28T23:59:17.540Z,6.20
